Startpagina
METAR-TAF:

METAR-TAF

Vliegvelden :

Koeweit, Koeweit

breedte: 29-13N, lengte: 047-59E, hoogte: 55 m

Actueel weer

Dit bericht is 13 minuten geleden gemaakt, om 18:00 UTC
Wind 8 kt uit het westen
Temperatuur 38°C
Vochtigheid 15%
Druk 997 hPa
Zicht: 7000 m
Onbewolkt

METAR: OKBK 181800Z 28008KT 7000 SKC 38/07 Q0997 NOSIG

Tijdstip: 21:13 (18:13 UTC)

Verwachting

Dit bericht is 1 uur en het 28 minuten geleden gemaakt, om 16:45 UTC
Verwachting geldig van 18 om 18 UTC tot 19 om 24 UTC
Wind 8 kt uit het noordnoordwesten met uitschieters tot 18 kt
Zicht: 7000 m
Onbewolkt

TAF: OKBK 181645Z 1818/1924 34008G18KT 7000 SKC

Waarnemingen en weersverwachtingen van meer dan 4000 vliegvelden (METAR en TAF).

De beschikbare stations zijn de gele en rode punten op de kaart.

Ga met uw muis naar het station om de naam te zien.

Klik dan om waarnemingen en weersverwachtingen te zien.

kaart wijzigen: klik op de groene knoppen met een zwart kruis om in te zoomen, op de groene knop met een streepje om uit te zoomen of op de groene pijlen voor aangrenzende kaarten.


METAR-TAF: